Terminal Aerodrome Forecast
Issued by NWS Twin Cities, MN

Home | Current Version | Previous Version | Text Only | Print | Product List | Glossary Off
Versions: 1 2 3 4 5 6 7 8 9 10 11 12 13 14 15 16 17 18 19 20 21

000
FTUS43 KMPX 120900 AAD
TAFSTC
TAF AMD
KSTC 120946Z 1210/1306 00000KT 3SM BR FEW002
     FM121130 34005KT 5SM BR BKN100
     FM121330 32007KT P6SM BKN100
     FM122300 28007KT P6SM SCT100=

USA.gov is the U.S. government's official web portal to all federal, state and local government web resources and services.